createdAt,value
2017-10-03T00:00:26.156Z,989.93
2017-10-03T00:01:26.012Z,989.94
2017-10-03T00:02:26.007Z,989.88
2017-10-03T00:03:26.012Z,989.91
2017-10-03T00:04:26.008Z,989.88
2017-10-03T00:05:26.010Z,989.84
2017-10-03T00:06:26.008Z,989.82
2017-10-03T00:07:26.010Z,989.81
2017-10-03T00:08:26.009Z,989.73
2017-10-03T00:09:26.016Z,989.73
2017-10-03T00:10:26.011Z,989.69
2017-10-03T00:11:26.012Z,989.67
2017-10-03T00:12:26.011Z,989.62
2017-10-03T00:13:26.013Z,989.7
2017-10-03T00:14:26.017Z,989.64
2017-10-03T00:15:26.200Z,989.63
2017-10-03T00:16:26.012Z,989.61
2017-10-03T00:17:26.012Z,989.61
2017-10-03T00:18:26.013Z,989.58
2017-10-03T00:19:26.013Z,989.54
2017-10-03T00:20:26.013Z,989.52
2017-10-03T00:21:26.014Z,989.56
2017-10-03T00:22:26.015Z,989.53
2017-10-03T00:23:26.014Z,989.52
2017-10-03T00:24:26.016Z,989.44
2017-10-03T00:25:26.024Z,989.41
2017-10-03T00:26:26.014Z,989.36
2017-10-03T00:27:26.013Z,989.33
2017-10-03T00:28:26.014Z,989.28
2017-10-03T00:29:26.015Z,989.23
2017-10-03T00:30:27.024Z,989.22
2017-10-03T00:31:26.016Z,989.18
2017-10-03T00:32:26.015Z,989.17
2017-10-03T00:33:26.015Z,989.1
2017-10-03T00:34:26.015Z,989.1
2017-10-03T00:35:26.016Z,989.11
2017-10-03T00:36:26.026Z,989.16
2017-10-03T00:37:26.016Z,989.21
2017-10-03T00:38:26.016Z,989.17
2017-10-03T00:39:26.020Z,989.09
2017-10-03T00:40:26.021Z,989.05
2017-10-03T00:41:26.017Z,989.02
2017-10-03T00:42:26.017Z,989.05
2017-10-03T00:43:26.017Z,989.02
2017-10-03T00:44:26.017Z,989
2017-10-03T00:45:26.016Z,988.94
2017-10-03T00:46:26.018Z,988.86
2017-10-03T00:47:26.020Z,988.81
2017-10-03T00:48:26.017Z,988.81
2017-10-03T00:49:26.018Z,988.82
2017-10-03T00:50:26.019Z,988.84
2017-10-03T00:51:26.020Z,988.83
2017-10-03T00:52:26.026Z,988.86
2017-10-03T00:53:26.022Z,988.86
2017-10-03T00:54:26.020Z,988.85
2017-10-03T00:55:26.023Z,988.86
2017-10-03T00:56:26.020Z,988.82
2017-10-03T00:57:26.022Z,988.81
2017-10-03T00:58:26.023Z,988.82
2017-10-03T00:59:26.021Z,988.82
2017-10-03T01:00:26.026Z,988.77
2017-10-03T01:01:26.023Z,988.68
2017-10-03T01:02:26.026Z,988.59
2017-10-03T01:03:26.024Z,988.53
2017-10-03T01:04:26.026Z,988.47
2017-10-03T01:05:26.024Z,988.43
2017-10-03T01:06:26.024Z,988.45
2017-10-03T01:07:26.026Z,988.37
2017-10-03T01:08:26.029Z,988.38
2017-10-03T01:09:26.027Z,988.4
2017-10-03T01:10:26.026Z,988.39
2017-10-03T01:11:26.026Z,988.33
2017-10-03T01:12:26.029Z,988.25
2017-10-03T01:13:26.027Z,988.3
2017-10-03T01:14:26.029Z,988.23
2017-10-03T01:15:26.031Z,988.16
2017-10-03T01:16:26.036Z,988.1
2017-10-03T01:17:26.048Z,988.08
2017-10-03T01:18:26.037Z,988.06
2017-10-03T01:19:26.036Z,988.02
2017-10-03T01:20:26.038Z,987.96
2017-10-03T01:21:26.041Z,987.92
2017-10-03T01:22:26.037Z,987.95
2017-10-03T01:23:26.036Z,987.92
2017-10-03T01:24:26.041Z,987.88
2017-10-03T01:25:26.039Z,987.8
2017-10-03T01:26:26.039Z,987.78
2017-10-03T01:27:26.042Z,987.8
2017-10-03T01:28:26.038Z,987.79
2017-10-03T01:29:26.045Z,987.78
2017-10-03T01:30:26.042Z,987.68
2017-10-03T01:31:26.040Z,987.62
2017-10-03T01:32:26.044Z,987.62
2017-10-03T01:33:26.042Z,987.62
2017-10-03T01:34:26.045Z,987.6
2017-10-03T01:35:26.046Z,987.57
2017-10-03T01:36:26.042Z,987.55
2017-10-03T01:37:26.046Z,987.5
2017-10-03T01:38:26.045Z,987.5
2017-10-03T01:39:26.043Z,987.44
2017-10-03T01:40:26.051Z,987.42
2017-10-03T01:41:26.045Z,987.44
2017-10-03T01:42:26.056Z,987.41
2017-10-03T01:43:26.049Z,987.43
2017-10-03T01:44:26.048Z,987.39
2017-10-03T01:45:26.052Z,987.32
2017-10-03T01:46:26.050Z,987.32
2017-10-03T01:47:26.054Z,987.31
2017-10-03T01:48:26.053Z,987.21
2017-10-03T01:49:26.051Z,987.17
2017-10-03T01:50:26.055Z,987.16
2017-10-03T01:51:26.052Z,987.14
2017-10-03T01:52:26.052Z,987.12
2017-10-03T01:53:26.055Z,987.12
2017-10-03T01:54:26.056Z,987.08
2017-10-03T01:55:26.053Z,987.08
2017-10-03T01:56:26.120Z,987.04
2017-10-03T01:57:26.055Z,987.02
2017-10-03T01:58:26.053Z,987.02
2017-10-03T01:59:26.054Z,987.01
2017-10-03T02:00:26.058Z,986.98
2017-10-03T02:01:30.361Z,986.95
2017-10-03T02:02:26.057Z,986.95
2017-10-03T02:03:26.057Z,986.98
2017-10-03T02:04:26.063Z,986.9
2017-10-03T02:05:26.059Z,986.91
2017-10-03T02:06:26.056Z,986.87
2017-10-03T02:07:26.062Z,986.81
2017-10-03T02:08:26.061Z,986.83
2017-10-03T02:09:26.066Z,986.78
2017-10-03T02:10:26.065Z,986.79
2017-10-03T02:11:26.063Z,986.78
2017-10-03T02:12:26.063Z,986.73
2017-10-03T02:13:26.062Z,986.79
2017-10-03T02:14:26.066Z,986.74
2017-10-03T02:15:26.069Z,986.78
2017-10-03T02:16:26.065Z,986.77
2017-10-03T02:17:26.068Z,986.74
2017-10-03T02:18:26.068Z,986.72
2017-10-03T02:19:26.071Z,986.7
2017-10-03T02:20:26.068Z,986.65
2017-10-03T02:21:26.068Z,986.63
2017-10-03T02:22:26.072Z,986.57
2017-10-03T02:23:26.069Z,986.57
2017-10-03T02:24:26.069Z,986.57
2017-10-03T02:25:26.070Z,986.52
2017-10-03T02:26:26.071Z,986.51
2017-10-03T02:27:26.071Z,986.42
2017-10-03T02:28:26.075Z,986.44
2017-10-03T02:29:26.076Z,986.44
2017-10-03T02:30:26.086Z,986.42
2017-10-03T02:31:26.073Z,986.39
2017-10-03T02:32:26.073Z,986.35
2017-10-03T02:33:26.076Z,986.31
2017-10-03T02:34:26.077Z,986.29
2017-10-03T02:35:26.078Z,986.26
2017-10-03T02:36:26.077Z,986.22
2017-10-03T02:37:26.078Z,986.19
2017-10-03T02:38:26.079Z,986.12
2017-10-03T02:39:26.078Z,986.16
2017-10-03T02:40:26.083Z,986.15
2017-10-03T02:41:26.082Z,986.15
2017-10-03T02:42:26.082Z,986.15
2017-10-03T02:43:26.082Z,986.14
2017-10-03T02:44:26.085Z,986.05
2017-10-03T02:45:26.088Z,986.09
2017-10-03T02:46:26.085Z,986.07
2017-10-03T02:47:26.086Z,986
2017-10-03T02:48:26.089Z,986.01
2017-10-03T02:49:26.086Z,985.96
2017-10-03T02:50:26.087Z,986.05
2017-10-03T02:51:26.087Z,986
2017-10-03T02:52:26.086Z,986
2017-10-03T02:53:26.088Z,985.95
2017-10-03T02:54:26.090Z,985.93
2017-10-03T02:55:26.095Z,985.9
2017-10-03T02:56:26.090Z,985.92
2017-10-03T02:57:26.090Z,985.87
2017-10-03T02:58:26.092Z,985.78
2017-10-03T02:59:26.093Z,985.75
2017-10-03T03:00:26.093Z,985.71
2017-10-03T03:01:26.094Z,985.66
2017-10-03T03:02:26.106Z,985.66
2017-10-03T03:03:26.095Z,985.71
2017-10-03T03:04:26.097Z,985.71
2017-10-03T03:05:26.100Z,985.65
2017-10-03T03:06:26.099Z,985.7
2017-10-03T03:07:26.098Z,985.61
2017-10-03T03:08:26.099Z,985.57
2017-10-03T03:09:26.171Z,985.57
2017-10-03T03:10:26.102Z,985.51
2017-10-03T03:11:26.102Z,985.52
2017-10-03T03:12:26.102Z,985.51
2017-10-03T03:13:26.103Z,985.56
2017-10-03T03:14:26.103Z,985.52
2017-10-03T03:15:26.106Z,985.52
2017-10-03T03:16:26.107Z,985.45
2017-10-03T03:17:26.106Z,985.42
2017-10-03T03:18:26.108Z,985.37
2017-10-03T03:19:26.107Z,985.31
2017-10-03T03:20:26.109Z,985.27
2017-10-03T03:21:26.109Z,985.32
2017-10-03T03:22:26.110Z,985.35
2017-10-03T03:23:26.110Z,985.33
2017-10-03T03:24:26.113Z,985.3
2017-10-03T03:25:26.112Z,985.18
2017-10-03T03:26:26.112Z,985.15
2017-10-03T03:27:26.113Z,985.04
2017-10-03T03:28:26.114Z,985
2017-10-03T03:29:26.114Z,985.03
2017-10-03T03:30:26.119Z,985.06
2017-10-03T03:31:26.115Z,985.01
2017-10-03T03:32:26.419Z,985
2017-10-03T03:33:26.117Z,985.04
2017-10-03T03:34:26.118Z,985.1
2017-10-03T03:35:26.120Z,985.1
2017-10-03T03:36:26.118Z,985.05
2017-10-03T03:37:26.120Z,985.07
2017-10-03T03:38:26.129Z,985.1
2017-10-03T03:39:26.122Z,985.06
2017-10-03T03:40:26.124Z,985.54
2017-10-03T03:41:26.124Z,986.54
2017-10-03T03:42:26.124Z,986.71
2017-10-03T03:43:26.125Z,986.99
2017-10-03T03:44:26.125Z,986.76
2017-10-03T03:45:26.127Z,987.22
2017-10-03T03:46:26.126Z,987.63
2017-10-03T03:47:26.128Z,987.83
2017-10-03T03:48:26.126Z,987.78
2017-10-03T03:49:26.126Z,987.53
2017-10-03T03:50:26.126Z,987.43
2017-10-03T03:51:26.124Z,987.41
2017-10-03T03:52:26.125Z,987.36
2017-10-03T03:53:26.122Z,987.4
2017-10-03T03:54:26.121Z,987.43
2017-10-03T03:55:26.121Z,987.34
2017-10-03T03:56:26.121Z,987.31
2017-10-03T03:57:26.122Z,987.3
2017-10-03T03:58:26.116Z,987.23
2017-10-03T03:59:26.116Z,987.28
2017-10-03T04:00:26.116Z,987.27
2017-10-03T04:01:26.113Z,987.39
2017-10-03T04:02:28.263Z,987.36
2017-10-03T04:03:26.109Z,987.35
2017-10-03T04:04:26.110Z,987.39
2017-10-03T04:05:26.106Z,987.4
2017-10-03T04:06:26.104Z,987.37
2017-10-03T04:07:26.102Z,987.33
2017-10-03T04:08:26.102Z,987.25
2017-10-03T04:09:26.098Z,987.32
2017-10-03T04:10:26.099Z,987.41
2017-10-03T04:11:26.096Z,987.55
2017-10-03T04:12:26.094Z,987.78
2017-10-03T04:13:26.094Z,987.93
2017-10-03T04:14:26.093Z,987.97
2017-10-03T04:15:26.089Z,987.98
2017-10-03T04:16:26.086Z,988.03
2017-10-03T04:17:26.086Z,988.03
2017-10-03T04:18:26.083Z,988.11
2017-10-03T04:19:26.083Z,988.2
2017-10-03T04:20:26.080Z,988.21
2017-10-03T04:21:26.077Z,988.26
2017-10-03T04:22:26.076Z,988.3
2017-10-03T04:23:26.089Z,988.28
2017-10-03T04:24:26.075Z,988.3
2017-10-03T04:25:26.078Z,988.24
2017-10-03T04:26:26.077Z,988.29
2017-10-03T04:27:26.075Z,988.17
2017-10-03T04:28:26.066Z,988.13
2017-10-03T04:29:26.062Z,988.07
2017-10-03T04:30:26.060Z,988.09
2017-10-03T04:31:26.058Z,988.02
2017-10-03T04:32:26.056Z,988.05
2017-10-03T04:33:26.054Z,988.05
2017-10-03T04:34:26.052Z,988.06
2017-10-03T04:35:26.052Z,987.99
2017-10-03T04:36:26.049Z,987.93
2017-10-03T04:37:26.047Z,987.98
2017-10-03T04:38:26.045Z,987.93
2017-10-03T04:39:26.041Z,987.88
2017-10-03T04:40:26.041Z,987.85
2017-10-03T04:41:26.037Z,987.87
2017-10-03T04:42:26.035Z,987.86
2017-10-03T04:43:26.033Z,987.85
2017-10-03T04:44:26.036Z,987.88
2017-10-03T04:45:26.032Z,987.86
2017-10-03T04:46:26.026Z,987.84
2017-10-03T04:47:26.030Z,987.91
2017-10-03T04:48:26.021Z,987.91
2017-10-03T04:49:26.023Z,987.91
2017-10-03T04:50:26.024Z,987.94
2017-10-03T04:51:26.022Z,988.02
2017-10-03T04:52:26.017Z,988.06
2017-10-03T04:53:26.010Z,988.12
2017-10-03T04:54:26.013Z,988.12
2017-10-03T04:55:26.010Z,988.15
2017-10-03T04:56:26.005Z,988.23
2017-10-03T04:57:26.004Z,988.28
2017-10-03T04:58:25.999Z,988.29
2017-10-03T04:59:25.997Z,988.31
2017-10-03T05:00:25.997Z,988.35
2017-10-03T05:01:25.991Z,988.41
2017-10-03T05:02:25.995Z,988.44
2017-10-03T05:03:25.989Z,988.49
2017-10-03T05:04:25.985Z,988.48
2017-10-03T05:05:25.990Z,988.5
2017-10-03T05:06:25.981Z,988.42
2017-10-03T05:07:25.981Z,988.36
2017-10-03T05:08:25.976Z,988.32
2017-10-03T05:09:25.974Z,988.31
2017-10-03T05:10:25.979Z,988.33
2017-10-03T05:11:25.974Z,988.26
2017-10-03T05:12:25.973Z,988.26
2017-10-03T05:13:25.966Z,988.26
2017-10-03T05:14:25.964Z,988.35
2017-10-03T05:15:25.963Z,988.38
2017-10-03T05:16:25.959Z,988.47
2017-10-03T05:17:25.961Z,988.49
2017-10-03T05:18:25.954Z,988.53
2017-10-03T05:19:25.958Z,988.55
2017-10-03T05:20:25.981Z,988.58
2017-10-03T05:21:25.949Z,988.62
2017-10-03T05:22:25.948Z,988.64
2017-10-03T05:23:25.945Z,988.65
2017-10-03T05:24:25.943Z,988.67
2017-10-03T05:25:25.945Z,988.65
2017-10-03T05:26:25.940Z,988.59
2017-10-03T05:27:25.936Z,988.51
2017-10-03T05:28:25.955Z,988.49
2017-10-03T05:29:26.008Z,988.51
2017-10-03T05:30:25.929Z,988.61
2017-10-03T05:31:25.929Z,988.73
2017-10-03T05:32:25.924Z,988.81
2017-10-03T05:33:26.225Z,988.87
2017-10-03T05:34:25.920Z,988.86
2017-10-03T05:35:25.917Z,988.94
2017-10-03T05:36:25.917Z,988.96
2017-10-03T05:37:25.912Z,988.98
2017-10-03T05:38:25.912Z,989
2017-10-03T05:39:25.911Z,989.03
2017-10-03T05:40:25.909Z,989.01
2017-10-03T05:41:25.905Z,989.09
2017-10-03T05:42:25.902Z,989.21
2017-10-03T05:43:25.906Z,989.28
2017-10-03T05:44:25.900Z,989.34
2017-10-03T05:45:25.896Z,989.41
2017-10-03T05:46:25.893Z,989.52
2017-10-03T05:47:25.892Z,989.57
2017-10-03T05:48:25.888Z,989.6
2017-10-03T05:49:25.889Z,989.68
2017-10-03T05:50:25.888Z,989.74
2017-10-03T05:51:25.883Z,989.74
2017-10-03T05:52:25.880Z,989.75
2017-10-03T05:53:25.878Z,989.8
2017-10-03T05:54:25.875Z,989.79
2017-10-03T05:55:25.876Z,989.86
2017-10-03T05:56:25.873Z,989.88
2017-10-03T05:57:25.870Z,989.89
2017-10-03T05:58:25.868Z,989.92
2017-10-03T05:59:25.867Z,989.93
2017-10-03T06:00:25.864Z,989.91
2017-10-03T06:01:25.862Z,989.98
2017-10-03T06:02:25.859Z,990.02
2017-10-03T06:03:28.714Z,990.01
2017-10-03T06:04:25.856Z,990.02
2017-10-03T06:05:25.856Z,990.06
2017-10-03T06:06:25.852Z,990.13
2017-10-03T06:07:25.856Z,990.2
2017-10-03T06:08:25.861Z,990.24
2017-10-03T06:09:25.845Z,990.27
2017-10-03T06:10:25.848Z,990.35
2017-10-03T06:11:25.842Z,990.4
2017-10-03T06:12:25.839Z,990.42
2017-10-03T06:13:25.837Z,990.45
2017-10-03T06:14:25.835Z,990.5
2017-10-03T06:15:25.842Z,990.55
2017-10-03T06:16:25.832Z,990.52
2017-10-03T06:17:25.829Z,990.54
2017-10-03T06:18:25.829Z,990.52
2017-10-03T06:19:25.826Z,990.52
2017-10-03T06:20:25.825Z,990.57
2017-10-03T06:21:25.821Z,990.56
2017-10-03T06:22:25.820Z,990.67
2017-10-03T06:23:25.817Z,990.67
2017-10-03T06:24:25.816Z,990.73
2017-10-03T06:25:25.822Z,990.74
2017-10-03T06:26:25.819Z,990.78
2017-10-03T06:27:25.816Z,990.8
2017-10-03T06:28:25.808Z,990.81
2017-10-03T06:29:25.805Z,990.81
2017-10-03T06:30:25.822Z,990.85
2017-10-03T06:31:25.804Z,990.9
2017-10-03T06:32:25.800Z,990.93
2017-10-03T06:33:25.801Z,990.87
2017-10-03T06:34:25.799Z,990.83
2017-10-03T06:35:25.803Z,990.72
2017-10-03T06:36:25.794Z,990.66
2017-10-03T06:37:25.791Z,990.61
2017-10-03T06:38:25.791Z,990.62
2017-10-03T06:39:25.790Z,990.53
2017-10-03T06:40:25.792Z,990.39
2017-10-03T06:41:25.786Z,990.25
2017-10-03T06:42:25.785Z,990.02
2017-10-03T06:43:25.783Z,989.83
2017-10-03T06:44:25.787Z,989.68
2017-10-03T06:45:25.789Z,989.72
2017-10-03T06:46:25.784Z,989.95
2017-10-03T06:47:25.788Z,990.11
2017-10-03T06:48:25.787Z,990.25
2017-10-03T06:49:25.771Z,990.36
2017-10-03T06:50:25.768Z,990.39
2017-10-03T06:51:25.773Z,990.47
2017-10-03T06:52:25.765Z,990.54
2017-10-03T06:53:25.763Z,990.6
2017-10-03T06:54:25.761Z,990.64
2017-10-03T06:55:25.765Z,990.69
2017-10-03T06:56:25.760Z,990.76
2017-10-03T06:57:25.757Z,990.73
2017-10-03T06:58:25.756Z,990.75
2017-10-03T06:59:25.755Z,990.78
2017-10-03T07:00:25.752Z,990.78
2017-10-03T07:01:25.750Z,990.86
2017-10-03T07:02:25.749Z,990.92
2017-10-03T07:03:25.747Z,990.97
2017-10-03T07:04:26.546Z,991.07
2017-10-03T07:05:25.744Z,991.05
2017-10-03T07:06:25.742Z,991.05
2017-10-03T07:07:25.740Z,991
2017-10-03T07:08:25.741Z,990.95
2017-10-03T07:09:25.738Z,990.97
2017-10-03T07:10:25.740Z,991.03
2017-10-03T07:11:25.739Z,991.02
2017-10-03T07:12:25.739Z,991.08
2017-10-03T07:13:25.739Z,991.14
2017-10-03T07:14:25.741Z,991.12
2017-10-03T07:15:25.741Z,991.14
2017-10-03T07:16:25.727Z,991.2
2017-10-03T07:17:25.726Z,991.13
2017-10-03T07:18:25.725Z,991.15
2017-10-03T07:19:25.723Z,991.2
2017-10-03T07:20:25.724Z,991.25
2017-10-03T07:21:25.718Z,991.32
2017-10-03T07:22:25.720Z,991.32
2017-10-03T07:23:25.716Z,991.26
2017-10-03T07:24:25.717Z,991.31
2017-10-03T07:25:25.717Z,991.31
2017-10-03T07:26:25.712Z,991.41
2017-10-03T07:27:25.711Z,991.4
2017-10-03T07:28:25.710Z,991.47
2017-10-03T07:29:25.709Z,991.46
2017-10-03T07:30:25.706Z,991.54
2017-10-03T07:31:25.705Z,991.58
2017-10-03T07:32:25.705Z,991.57
2017-10-03T07:33:25.710Z,991.47
2017-10-03T07:34:25.709Z,991.37
2017-10-03T07:35:25.712Z,991.39
2017-10-03T07:36:25.698Z,991.41
2017-10-03T07:37:25.696Z,991.32
2017-10-03T07:38:25.695Z,991.36
2017-10-03T07:39:25.694Z,991.4
2017-10-03T07:40:25.693Z,991.56
2017-10-03T07:41:25.691Z,991.65
2017-10-03T07:42:25.689Z,991.81
2017-10-03T07:43:25.687Z,991.92
2017-10-03T07:44:25.686Z,991.94
2017-10-03T07:45:25.686Z,991.94
2017-10-03T07:46:25.682Z,992.03
2017-10-03T07:47:25.682Z,991.99
2017-10-03T07:48:25.682Z,991.96
2017-10-03T07:49:25.677Z,991.91
2017-10-03T07:50:25.677Z,991.93
2017-10-03T07:51:25.675Z,991.93
2017-10-03T07:52:25.673Z,991.93
2017-10-03T07:53:25.673Z,991.93
2017-10-03T07:54:25.669Z,991.92
2017-10-03T07:55:25.671Z,991.93
2017-10-03T07:56:25.666Z,991.88
2017-10-03T07:57:25.688Z,991.93
2017-10-03T07:58:25.663Z,991.88
2017-10-03T07:59:25.662Z,991.93
2017-10-03T08:00:25.669Z,991.91
2017-10-03T08:01:25.666Z,991.93
2017-10-03T08:02:25.666Z,991.86
2017-10-03T08:03:25.656Z,991.9
2017-10-03T08:04:25.655Z,991.96
2017-10-03T08:05:25.656Z,991.99
2017-10-03T08:06:25.652Z,992.14
2017-10-03T08:07:25.652Z,992.2
2017-10-03T08:08:25.657Z,992.19
2017-10-03T08:09:25.649Z,992.23
2017-10-03T08:10:25.650Z,992.22
2017-10-03T08:11:25.647Z,992.18
2017-10-03T08:12:25.647Z,992.22
2017-10-03T08:13:25.647Z,992.26
2017-10-03T08:14:25.648Z,992.25
2017-10-03T08:15:25.645Z,992.29
2017-10-03T08:16:25.647Z,992.29
2017-10-03T08:17:25.644Z,992.28
2017-10-03T08:18:25.642Z,992.3
2017-10-03T08:19:25.642Z,992.37
2017-10-03T08:20:29.859Z,992.32
2017-10-03T08:21:25.640Z,992.39
2017-10-03T08:22:25.640Z,992.4
2017-10-03T08:23:25.642Z,992.37
2017-10-03T08:24:25.641Z,992.42
2017-10-03T08:25:25.641Z,992.37
2017-10-03T08:26:25.638Z,992.41
2017-10-03T08:27:25.638Z,992.34
2017-10-03T08:28:25.639Z,992.45
2017-10-03T08:29:25.636Z,992.44
2017-10-03T08:30:25.639Z,992.46
2017-10-03T08:31:25.637Z,992.49
2017-10-03T08:32:25.638Z,992.45
2017-10-03T08:33:25.635Z,992.46
2017-10-03T08:34:25.635Z,992.47
2017-10-03T08:35:25.634Z,992.46
2017-10-03T08:36:25.632Z,992.53
2017-10-03T08:37:25.635Z,992.52
2017-10-03T08:38:25.633Z,992.55
2017-10-03T08:39:25.633Z,992.5
2017-10-03T08:40:25.632Z,992.54
2017-10-03T08:41:25.635Z,992.51
2017-10-03T08:42:25.631Z,992.49
2017-10-03T08:43:25.630Z,992.57
2017-10-03T08:44:25.628Z,992.63
2017-10-03T08:45:25.629Z,992.64
2017-10-03T08:46:25.630Z,992.67
2017-10-03T08:47:25.631Z,992.75
2017-10-03T08:48:25.631Z,992.76
2017-10-03T08:49:25.629Z,992.79
2017-10-03T08:50:25.633Z,992.86
2017-10-03T08:51:25.634Z,992.89
2017-10-03T08:52:25.638Z,992.83
2017-10-03T08:53:25.630Z,992.9
2017-10-03T08:54:25.627Z,992.94
2017-10-03T08:55:25.628Z,993.05
2017-10-03T08:56:25.626Z,993.1
2017-10-03T08:57:25.628Z,993.14
2017-10-03T08:58:25.628Z,993.18
2017-10-03T08:59:25.628Z,993.22
2017-10-03T09:00:25.631Z,993.16
2017-10-03T09:01:25.625Z,993.26
2017-10-03T09:02:25.628Z,993.24
2017-10-03T09:03:25.626Z,993.21
2017-10-03T09:04:25.635Z,993.19
2017-10-03T09:05:25.629Z,993.17
2017-10-03T09:06:25.742Z,993.23
2017-10-03T09:07:25.633Z,993.24
2017-10-03T09:08:25.635Z,993.3
2017-10-03T09:09:25.630Z,993.36
2017-10-03T09:10:25.632Z,993.39
2017-10-03T09:11:25.633Z,993.52
2017-10-03T09:12:25.633Z,993.46
2017-10-03T09:13:25.631Z,993.51
2017-10-03T09:14:25.636Z,993.47
2017-10-03T09:15:25.634Z,993.36
2017-10-03T09:16:25.632Z,993.41
2017-10-03T09:17:25.634Z,993.46
2017-10-03T09:18:25.634Z,993.47
2017-10-03T09:19:25.634Z,993.52
2017-10-03T09:20:25.634Z,993.47
2017-10-03T09:21:25.635Z,993.52
2017-10-03T09:22:25.667Z,993.5
2017-10-03T09:23:25.636Z,993.52
2017-10-03T09:24:25.637Z,993.55
2017-10-03T09:25:25.640Z,993.56
2017-10-03T09:26:25.639Z,993.53
2017-10-03T09:27:25.641Z,993.59
2017-10-03T09:28:25.640Z,993.68
2017-10-03T09:29:25.641Z,993.66
2017-10-03T09:30:25.647Z,993.7
2017-10-03T09:31:25.642Z,993.67
2017-10-03T09:32:25.650Z,993.75
2017-10-03T09:33:25.645Z,993.83
2017-10-03T09:34:25.647Z,993.91
2017-10-03T09:35:25.648Z,993.98
2017-10-03T09:36:28.600Z,993.89
2017-10-03T09:37:25.652Z,993.89
2017-10-03T09:38:25.652Z,993.95
2017-10-03T09:39:25.651Z,994.03
2017-10-03T09:40:25.654Z,994.05
2017-10-03T09:41:25.657Z,994
2017-10-03T09:42:25.659Z,994
2017-10-03T09:43:25.658Z,993.99
2017-10-03T09:44:25.658Z,993.99
2017-10-03T09:45:25.661Z,994.08
2017-10-03T09:46:25.659Z,994.1
2017-10-03T09:47:25.661Z,994.15
2017-10-03T09:48:25.700Z,994.17
2017-10-03T09:49:25.665Z,994.18
2017-10-03T09:50:25.668Z,994.28
2017-10-03T09:51:25.668Z,994.3
2017-10-03T09:52:25.668Z,994.23
2017-10-03T09:53:25.670Z,994.16
2017-10-03T09:54:25.671Z,994.19
2017-10-03T09:55:25.675Z,994.17
2017-10-03T09:56:25.674Z,994.18
2017-10-03T09:57:25.677Z,994.23
2017-10-03T09:58:25.677Z,994.17
2017-10-03T09:59:25.678Z,994.25
2017-10-03T10:00:25.682Z,994.25
2017-10-03T10:01:25.681Z,994.26
2017-10-03T10:02:25.684Z,994.3
2017-10-03T10:03:25.685Z,994.33
2017-10-03T10:04:25.687Z,994.34
2017-10-03T10:05:25.693Z,994.39
2017-10-03T10:06:25.689Z,994.44
2017-10-03T10:07:25.690Z,994.46
2017-10-03T10:08:25.727Z,994.45
2017-10-03T10:09:25.693Z,994.4
2017-10-03T10:10:25.700Z,994.46
2017-10-03T10:11:25.709Z,994.45
2017-10-03T10:12:25.695Z,994.49
2017-10-03T10:13:25.698Z,994.51
2017-10-03T10:14:25.699Z,994.52
2017-10-03T10:15:25.701Z,994.52
2017-10-03T10:16:25.704Z,994.54
2017-10-03T10:17:25.705Z,994.46
2017-10-03T10:18:25.707Z,994.53
2017-10-03T10:19:25.707Z,994.52
2017-10-03T10:20:25.710Z,994.59
2017-10-03T10:21:25.710Z,994.63
2017-10-03T10:22:25.711Z,994.62
2017-10-03T10:23:25.710Z,994.69
2017-10-03T10:24:25.711Z,994.81
2017-10-03T10:25:25.724Z,994.83
2017-10-03T10:26:25.713Z,994.84
2017-10-03T10:27:25.714Z,994.87
2017-10-03T10:28:25.716Z,994.86
2017-10-03T10:29:25.717Z,994.83
2017-10-03T10:30:25.719Z,994.8
2017-10-03T10:31:25.721Z,994.84
2017-10-03T10:32:25.719Z,994.79
2017-10-03T10:33:25.721Z,994.81
2017-10-03T10:34:25.723Z,994.73
2017-10-03T10:35:25.726Z,994.77
2017-10-03T10:36:25.725Z,994.71
2017-10-03T10:37:25.768Z,994.78
2017-10-03T10:38:25.728Z,994.77
2017-10-03T10:39:25.733Z,994.77
2017-10-03T10:40:25.731Z,994.85
2017-10-03T10:41:25.732Z,994.82
2017-10-03T10:42:25.733Z,994.85
2017-10-03T10:43:25.736Z,994.86
2017-10-03T10:44:25.734Z,994.86
2017-10-03T10:45:25.737Z,994.91
2017-10-03T10:46:25.737Z,994.97
2017-10-03T10:47:25.738Z,995
2017-10-03T10:48:25.738Z,995.05
2017-10-03T10:49:25.739Z,995.07
2017-10-03T10:50:25.745Z,995.09
2017-10-03T10:51:25.738Z,995.07
2017-10-03T10:52:25.741Z,995.11
2017-10-03T10:53:25.741Z,995.12
2017-10-03T10:54:25.746Z,995.17
2017-10-03T10:55:25.744Z,995.12
2017-10-03T10:56:25.744Z,995.15
2017-10-03T10:57:25.745Z,995.14
2017-10-03T10:58:25.744Z,995.14
2017-10-03T10:59:25.745Z,995.2
2017-10-03T11:00:25.747Z,995.23
2017-10-03T11:01:25.749Z,995.18
2017-10-03T11:02:25.746Z,995.22
2017-10-03T11:03:25.751Z,995.21
2017-10-03T11:04:25.748Z,995.32
2017-10-03T11:05:25.750Z,995.32
2017-10-03T11:06:25.750Z,995.3
2017-10-03T11:07:26.702Z,995.28
2017-10-03T11:08:25.751Z,995.24
2017-10-03T11:09:25.752Z,995.26
2017-10-03T11:10:25.756Z,995.3
2017-10-03T11:11:25.756Z,995.28
2017-10-03T11:12:25.759Z,995.27
2017-10-03T11:13:25.756Z,995.31
2017-10-03T11:14:25.758Z,995.35
2017-10-03T11:15:25.761Z,995.32
2017-10-03T11:16:25.761Z,995.33
2017-10-03T11:17:25.762Z,995.39
2017-10-03T11:18:25.762Z,995.42
2017-10-03T11:19:25.765Z,995.41
2017-10-03T11:20:25.765Z,995.37
2017-10-03T11:21:25.767Z,995.42
2017-10-03T11:22:25.770Z,995.37
2017-10-03T11:23:25.769Z,995.38
2017-10-03T11:24:25.771Z,995.36
2017-10-03T11:25:25.771Z,995.29
2017-10-03T11:26:25.773Z,995.34
2017-10-03T11:27:25.774Z,995.33
2017-10-03T11:28:25.778Z,995.3
2017-10-03T11:29:25.776Z,995.31
2017-10-03T11:30:25.780Z,995.3
2017-10-03T11:31:25.778Z,995.25
2017-10-03T11:32:25.780Z,995.23
2017-10-03T11:33:25.781Z,995.27
2017-10-03T11:34:25.783Z,995.27
2017-10-03T11:35:25.782Z,995.28
2017-10-03T11:36:25.784Z,995.3
2017-10-03T11:37:25.785Z,995.31
2017-10-03T11:38:25.786Z,995.31
2017-10-03T11:39:25.789Z,995.26
2017-10-03T11:40:25.793Z,995.36
2017-10-03T11:41:25.790Z,995.34
2017-10-03T11:42:25.791Z,995.38
2017-10-03T11:43:25.791Z,995.37
2017-10-03T11:44:25.793Z,995.42
2017-10-03T11:45:25.794Z,995.45
2017-10-03T11:46:25.794Z,995.48
2017-10-03T11:47:25.795Z,995.51
2017-10-03T11:48:25.796Z,995.54
2017-10-03T11:49:25.798Z,995.55
2017-10-03T11:50:25.798Z,995.62
2017-10-03T11:51:25.799Z,995.57
2017-10-03T11:52:25.800Z,995.6
2017-10-03T11:53:25.801Z,995.56
2017-10-03T11:54:25.801Z,995.56
2017-10-03T11:55:25.803Z,995.44
2017-10-03T11:56:25.804Z,995.49
2017-10-03T11:57:25.805Z,995.43
2017-10-03T11:58:25.808Z,995.49
2017-10-03T11:59:25.806Z,995.48
2017-10-03T12:00:25.807Z,995.45
2017-10-03T12:01:25.811Z,995.45
2017-10-03T12:02:25.818Z,995.56
2017-10-03T12:03:25.812Z,995.61
2017-10-03T12:04:25.813Z,995.64
2017-10-03T12:05:25.819Z,995.64
2017-10-03T12:06:25.816Z,995.64
2017-10-03T12:07:25.819Z,995.69
2017-10-03T12:08:25.969Z,995.69
2017-10-03T12:09:25.819Z,995.67
2017-10-03T12:10:25.823Z,995.67
2017-10-03T12:11:25.821Z,995.63
2017-10-03T12:12:25.825Z,995.66
2017-10-03T12:13:26.626Z,995.64
2017-10-03T12:14:25.828Z,995.64
2017-10-03T12:15:25.828Z,995.59
2017-10-03T12:16:25.828Z,995.61
2017-10-03T12:17:25.831Z,995.61
2017-10-03T12:18:25.833Z,995.59
2017-10-03T12:19:25.833Z,995.59
2017-10-03T12:20:25.836Z,995.58
2017-10-03T12:21:25.843Z,995.67
2017-10-03T12:22:25.836Z,995.68
2017-10-03T12:23:25.840Z,995.66
2017-10-03T12:24:25.839Z,995.6
2017-10-03T12:25:25.841Z,995.59
2017-10-03T12:26:25.855Z,995.57
2017-10-03T12:27:25.843Z,995.61
2017-10-03T12:28:25.847Z,995.6
2017-10-03T12:29:25.846Z,995.65
2017-10-03T12:30:25.848Z,995.63
2017-10-03T12:31:25.849Z,995.67